createdAt,value
2023-11-18T00:00:35.544Z,74.10
2023-11-18T00:03:02.525Z,74.10
2023-11-18T00:05:29.302Z,74.10
2023-11-18T00:07:56.125Z,74.00
2023-11-18T00:10:24.295Z,74.00
2023-11-18T00:12:51.055Z,74.00
2023-11-18T00:15:17.925Z,73.90
2023-11-18T00:17:44.693Z,73.90
2023-11-18T00:20:11.914Z,73.90
2023-11-18T00:22:38.685Z,73.90
2023-11-18T00:25:05.869Z,73.90
2023-11-18T00:27:33.976Z,73.90
2023-11-18T00:30:00.807Z,73.90
2023-11-18T00:32:27.686Z,73.90
2023-11-18T00:34:54.521Z,73.90
2023-11-18T00:37:21.285Z,73.80
2023-11-18T00:39:48.023Z,73.90
2023-11-18T00:42:14.791Z,73.90
2023-11-18T00:44:42.907Z,73.80
2023-11-18T00:47:09.720Z,73.80
2023-11-18T00:49:36.609Z,73.80
2023-11-18T00:52:03.528Z,73.70
2023-11-18T00:54:30.274Z,73.90
2023-11-18T00:56:56.997Z,73.70
2023-11-18T00:59:23.728Z,73.70
2023-11-18T01:01:51.858Z,73.80
2023-11-18T01:04:18.659Z,73.70
2023-11-18T01:06:45.393Z,73.70
2023-11-18T01:09:12.170Z,73.70
2023-11-18T01:11:38.901Z,73.70
2023-11-18T01:14:05.703Z,73.70
2023-11-18T01:16:32.522Z,73.70
2023-11-18T01:19:00.732Z,73.60
2023-11-18T01:21:27.485Z,73.60
2023-11-18T01:23:54.222Z,73.50
2023-11-18T01:26:20.958Z,73.50
2023-11-18T01:28:47.742Z,73.50
2023-11-18T01:31:14.532Z,73.40
2023-11-18T01:33:41.343Z,73.40
2023-11-18T01:36:09.726Z,73.30
2023-11-18T01:38:36.466Z,73.30
2023-11-18T01:41:03.401Z,73.30
2023-11-18T01:43:30.215Z,73.30
2023-11-18T01:45:57.255Z,73.40
2023-11-18T01:48:24.030Z,73.40
2023-11-18T01:50:50.765Z,73.40
2023-11-18T01:53:18.894Z,73.30
2023-11-18T01:55:45.633Z,73.30
2023-11-18T01:58:12.399Z,73.30
2023-11-18T02:00:39.148Z,73.40
2023-11-18T02:03:06.041Z,73.30
2023-11-18T02:05:32.942Z,73.40
2023-11-18T02:07:59.733Z,73.30
2023-11-18T02:10:27.979Z,73.40
2023-11-18T02:12:56.267Z,73.40
2023-11-18T02:15:23.040Z,73.30
2023-11-18T02:17:49.865Z,73.30
2023-11-18T02:20:16.666Z,73.20
2023-11-18T02:22:44.655Z,74.10
2023-11-18T02:25:11.407Z,73.40
2023-11-18T02:27:39.598Z,73.40
2023-11-18T02:30:07.092Z,73.40
2023-11-18T02:32:34.625Z,73.40
2023-11-18T02:35:02.996Z,73.40
2023-11-18T02:37:29.755Z,73.40
2023-11-18T02:39:58.466Z,73.40
2023-11-18T02:42:25.249Z,73.40
2023-11-18T02:44:53.343Z,73.30
2023-11-18T02:47:20.071Z,73.30
2023-11-18T02:49:46.819Z,73.40
2023-11-18T02:52:13.588Z,73.30
2023-11-18T02:54:40.332Z,73.40
2023-11-18T02:57:07.115Z,73.40
2023-11-18T02:59:33.830Z,73.40
2023-11-18T03:02:02.006Z,73.30
2023-11-18T03:04:28.813Z,73.40
2023-11-18T03:06:55.642Z,73.30
2023-11-18T03:09:22.381Z,73.20
2023-11-18T03:11:49.118Z,73.20
2023-11-18T03:14:15.912Z,73.20
2023-11-18T03:16:42.880Z,73.20
2023-11-18T03:19:11.104Z,73.20
2023-11-18T03:21:37.923Z,73.30
2023-11-18T03:24:05.166Z,73.20
2023-11-18T03:26:31.898Z,73.20
2023-11-18T03:28:58.649Z,73.30
2023-11-18T03:31:25.402Z,73.30
2023-11-18T03:33:52.166Z,73.20
2023-11-18T03:36:20.315Z,73.20
2023-11-18T03:38:47.046Z,73.40
2023-11-18T03:41:13.811Z,73.30
2023-11-18T03:43:40.671Z,73.30
2023-11-18T03:46:07.448Z,73.30
2023-11-18T03:48:34.227Z,73.40
2023-11-18T03:51:01.842Z,73.40
2023-11-18T03:53:29.940Z,73.30
2023-11-18T03:55:56.715Z,73.30
2023-11-18T03:58:23.475Z,73.40
2023-11-18T04:00:50.204Z,73.50
2023-11-18T04:03:16.967Z,73.50
2023-11-18T04:05:43.712Z,73.40
2023-11-18T04:08:10.551Z,73.50
2023-11-18T04:10:38.729Z,73.50
2023-11-18T04:13:05.493Z,73.50
2023-11-18T04:15:32.228Z,73.50
2023-11-18T04:17:58.977Z,73.50
2023-11-18T04:20:25.743Z,73.50
2023-11-18T04:22:52.522Z,73.50
2023-11-18T04:25:19.301Z,73.50
2023-11-18T04:27:47.470Z,73.50
2023-11-18T04:30:14.608Z,73.50
2023-11-18T04:32:41.556Z,73.50
2023-11-18T04:35:08.839Z,73.50
2023-11-18T04:37:35.652Z,73.50
2023-11-18T04:40:02.410Z,73.50
2023-11-18T04:42:29.151Z,73.50
2023-11-18T04:44:57.261Z,73.60
2023-11-18T04:47:24.057Z,73.60
2023-11-18T04:49:50.905Z,73.60
2023-11-18T04:52:17.674Z,73.70
2023-11-18T04:54:44.420Z,73.60
2023-11-18T04:57:11.170Z,73.60
2023-11-18T04:59:37.908Z,73.70
2023-11-18T05:02:06.162Z,73.70
2023-11-18T05:04:32.986Z,73.70
2023-11-18T05:06:59.732Z,73.70
2023-11-18T05:09:26.524Z,73.70
2023-11-18T05:11:53.245Z,73.70
2023-11-18T05:14:19.980Z,73.70
2023-11-18T05:16:46.770Z,73.70
2023-11-18T05:19:14.898Z,73.80
2023-11-18T05:21:41.630Z,73.80
2023-11-18T05:24:08.404Z,73.80
2023-11-18T05:26:35.145Z,73.80
2023-11-18T05:29:01.916Z,73.80
2023-11-18T05:31:30.642Z,73.80
2023-11-18T05:33:57.372Z,73.80
2023-11-18T05:36:25.475Z,73.80
2023-11-18T05:38:52.208Z,73.80
2023-11-18T05:41:18.950Z,73.80
2023-11-18T05:43:45.687Z,73.80
2023-11-18T05:46:12.455Z,73.80
2023-11-18T05:48:39.188Z,73.80
2023-11-18T05:51:10.620Z,73.80
2023-11-18T05:53:41.736Z,73.90
2023-11-18T05:56:08.990Z,73.90
2023-11-18T05:58:35.812Z,73.90
2023-11-18T06:01:03.106Z,73.90
2023-11-18T06:03:29.959Z,73.90
2023-11-18T06:05:56.877Z,73.90
2023-11-18T06:08:23.615Z,73.90
2023-11-18T06:10:51.799Z,73.90
2023-11-18T06:13:18.544Z,74.00
2023-11-18T06:15:45.278Z,73.90
2023-11-18T06:18:12.165Z,73.90
2023-11-18T06:20:38.957Z,73.90
2023-11-18T06:23:05.736Z,73.90
2023-11-18T06:25:32.520Z,73.90
2023-11-18T06:28:00.634Z,73.80
2023-11-18T06:30:27.371Z,74.00
2023-11-18T06:32:54.154Z,73.80
2023-11-18T06:35:20.924Z,73.80
2023-11-18T06:37:47.670Z,73.90
2023-11-18T06:40:14.476Z,74.70
2023-11-18T06:42:41.253Z,74.00
2023-11-18T06:45:09.851Z,74.00
2023-11-18T06:47:36.732Z,73.90
2023-11-18T06:50:03.638Z,74.00
2023-11-18T06:52:30.380Z,74.00
2023-11-18T06:54:57.106Z,74.10
2023-11-18T06:57:23.842Z,74.00
2023-11-18T06:59:50.678Z,74.00
2023-11-18T07:02:18.827Z,74.10
2023-11-18T07:04:45.685Z,74.00
2023-11-18T07:07:12.422Z,74.20
2023-11-18T07:09:39.159Z,74.20
2023-11-18T07:12:06.262Z,74.50
2023-11-18T07:14:33.077Z,74.50
2023-11-18T07:16:59.879Z,74.50
2023-11-18T07:19:28.049Z,74.60
2023-11-18T07:21:54.813Z,74.60
2023-11-18T07:24:22.117Z,74.50
2023-11-18T07:26:48.928Z,74.60
2023-11-18T07:29:15.688Z,74.60
2023-11-18T07:31:42.655Z,74.60
2023-11-18T07:34:09.423Z,74.50
2023-11-18T07:36:37.529Z,74.50
2023-11-18T07:39:04.442Z,74.60
2023-11-18T07:41:33.637Z,74.50
2023-11-18T07:44:00.963Z,74.60
2023-11-18T07:46:27.861Z,74.60
2023-11-18T07:48:54.687Z,74.70
2023-11-18T07:51:21.559Z,74.70
2023-11-18T07:53:49.783Z,74.70
2023-11-18T07:56:16.688Z,74.70
2023-11-18T07:58:43.540Z,74.70
2023-11-18T08:01:10.339Z,74.60
2023-11-18T08:03:37.186Z,74.60
2023-11-18T08:06:04.366Z,74.70
2023-11-18T08:08:31.102Z,74.70
2023-11-18T08:10:59.247Z,74.70
2023-11-18T08:13:26.049Z,74.80
2023-11-18T08:15:53.168Z,74.80
2023-11-18T08:18:19.959Z,74.80
2023-11-18T08:20:46.768Z,74.80
2023-11-18T08:23:13.567Z,74.80
2023-11-18T08:25:40.403Z,74.80
2023-11-18T08:28:08.645Z,74.80
2023-11-18T08:30:35.471Z,74.90
2023-11-18T08:33:06.021Z,74.90
2023-11-18T08:35:33.237Z,74.50
2023-11-18T08:38:00.011Z,74.90
2023-11-18T08:40:26.755Z,74.80
2023-11-18T08:42:53.698Z,74.80
2023-11-18T08:45:22.026Z,74.80
2023-11-18T08:47:48.885Z,74.80
2023-11-18T08:50:15.775Z,74.80
2023-11-18T08:52:42.617Z,74.80
2023-11-18T08:55:09.696Z,74.90
2023-11-18T08:57:36.449Z,74.80
2023-11-18T09:00:03.341Z,74.70
2023-11-18T09:02:34.682Z,74.90
2023-11-18T09:05:03.524Z,74.90
2023-11-18T09:07:30.263Z,74.90
2023-11-18T09:09:56.992Z,75.00
2023-11-18T09:12:23.729Z,75.10
2023-11-18T09:14:50.522Z,75.00
2023-11-18T09:17:17.365Z,75.10
2023-11-18T09:19:45.557Z,75.10
2023-11-18T09:22:12.331Z,75.20
2023-11-18T09:24:39.188Z,75.30
2023-11-18T09:27:05.975Z,75.40
2023-11-18T09:29:32.739Z,75.30
2023-11-18T09:31:59.535Z,75.40
2023-11-18T09:34:26.314Z,75.60
2023-11-18T09:36:54.428Z,75.70
2023-11-18T09:39:21.315Z,75.70
2023-11-18T09:41:48.047Z,75.90
2023-11-18T09:44:14.801Z,75.90
2023-11-18T09:46:42.515Z,76.10
2023-11-18T09:49:12.147Z,76.20
2023-11-18T09:51:39.114Z,76.20
2023-11-18T09:54:13.164Z,76.30
2023-11-18T09:56:41.515Z,76.30
2023-11-18T09:59:17.503Z,76.60
2023-11-18T10:01:44.814Z,76.70
2023-11-18T10:04:11.713Z,76.70
2023-11-18T10:06:38.469Z,76.80
2023-11-18T10:09:05.350Z,76.70
2023-11-18T10:11:33.451Z,76.70
2023-11-18T10:14:00.262Z,76.70
2023-11-18T10:16:28.875Z,76.60
2023-11-18T10:18:55.604Z,76.70
2023-11-18T10:21:22.354Z,76.60
2023-11-18T10:24:01.378Z,76.80
2023-11-18T10:26:28.220Z,76.90
2023-11-18T10:28:56.394Z,77.00
2023-11-18T10:31:23.256Z,77.10
2023-11-18T10:33:50.014Z,77.20
2023-11-18T10:36:20.347Z,77.10
2023-11-18T10:38:47.112Z,77.10
2023-11-18T10:41:13.898Z,77.30
2023-11-18T10:43:40.705Z,77.30
2023-11-18T10:46:09.353Z,77.30
2023-11-18T10:48:36.108Z,77.40
2023-11-18T10:51:02.898Z,77.40
2023-11-18T10:53:29.639Z,77.40
2023-11-18T11:18:13.760Z,77.50
2023-11-18T11:20:40.744Z,77.70
2023-11-18T11:23:10.591Z,77.60
2023-11-18T11:25:38.997Z,77.60
2023-11-18T11:28:08.322Z,77.80
2023-11-18T11:30:38.108Z,77.70
2023-11-18T11:33:06.479Z,77.80
2023-11-18T11:35:34.624Z,77.80
2023-11-18T11:38:01.425Z,77.80
2023-11-18T11:40:28.172Z,77.80
2023-11-18T11:42:54.932Z,77.80
2023-11-18T11:45:22.740Z,77.70
2023-11-18T11:47:49.733Z,77.90
2023-11-18T11:50:17.278Z,77.80
2023-11-18T11:52:46.143Z,77.90
2023-11-18T11:55:13.600Z,78.00
2023-11-18T11:57:41.022Z,78.00
2023-11-18T12:00:10.257Z,78.10
2023-11-18T12:02:37.114Z,78.10
2023-11-18T12:05:04.144Z,78.20
2023-11-18T12:07:30.896Z,78.20
2023-11-18T12:09:58.995Z,78.20
2023-11-18T12:12:26.206Z,78.20
2023-11-18T12:14:53.196Z,78.30
2023-11-18T12:17:19.995Z,78.30
2023-11-18T12:19:46.866Z,78.30
2023-11-18T12:22:13.679Z,78.30
2023-11-18T12:24:40.411Z,78.40
2023-11-18T12:27:08.546Z,78.40
2023-11-18T12:29:35.348Z,78.40
2023-11-18T12:32:02.161Z,78.40
2023-11-18T12:34:43.801Z,78.40
2023-11-18T12:37:28.811Z,78.40
2023-11-18T12:40:04.454Z,78.40
2023-11-18T12:42:42.044Z,78.50
2023-11-18T12:45:16.395Z,78.50
2023-11-18T12:47:43.488Z,78.60
2023-11-18T12:50:10.337Z,78.50
2023-11-18T12:52:37.099Z,78.50
2023-11-18T12:55:04.072Z,78.50
2023-11-18T12:57:30.794Z,78.50
2023-11-18T12:59:58.914Z,78.50
2023-11-18T13:02:25.843Z,78.50
2023-11-18T13:04:52.687Z,78.40
2023-11-18T13:07:19.471Z,78.40
2023-11-18T13:09:46.217Z,78.40
2023-11-18T13:12:13.094Z,78.40
2023-11-18T13:14:39.864Z,78.40
2023-11-18T13:17:09.619Z,78.40
2023-11-18T13:19:36.439Z,78.40
2023-11-18T13:22:03.522Z,78.40
2023-11-18T13:24:30.291Z,78.50
2023-11-18T13:26:57.047Z,78.50
2023-11-18T13:29:23.826Z,78.50
2023-11-18T13:31:50.670Z,78.50
2023-11-18T13:34:19.111Z,78.60
2023-11-18T13:36:45.892Z,78.60
2023-11-18T13:39:16.526Z,78.60
2023-11-18T13:41:43.262Z,78.60
2023-11-18T13:44:10.007Z,78.60
2023-11-18T13:46:38.831Z,78.60
2023-11-18T13:49:06.694Z,78.70
2023-11-18T13:51:34.826Z,78.80
2023-11-18T13:54:01.676Z,78.90
2023-11-18T13:56:28.675Z,78.90
2023-11-18T13:58:55.584Z,78.90
2023-11-18T14:01:22.491Z,79.20
2023-11-18T14:03:49.337Z,79.20
2023-11-18T14:06:16.093Z,79.30
2023-11-18T14:08:44.256Z,79.50
2023-11-18T14:11:16.467Z,79.60
2023-11-18T14:13:44.747Z,79.70
2023-11-18T14:16:11.667Z,79.80
2023-11-18T14:18:42.996Z,79.80
2023-11-18T14:21:10.755Z,80.50
2023-11-18T14:23:38.199Z,79.70
2023-11-18T14:26:09.126Z,79.80
2023-11-18T14:28:36.299Z,79.80
2023-11-18T14:31:03.403Z,79.70
2023-11-18T14:33:33.623Z,79.70
2023-11-18T14:36:00.446Z,79.90
2023-11-18T14:38:29.950Z,80.00
2023-11-18T14:40:59.598Z,80.10
2023-11-18T14:43:32.232Z,80.20
2023-11-18T14:45:59.101Z,80.30
2023-11-18T14:48:26.530Z,80.30
2023-11-18T14:50:53.383Z,80.30
2023-11-18T14:53:23.245Z,80.30
2023-11-18T14:55:50.331Z,80.40
2023-11-18T14:58:17.375Z,80.50
2023-11-18T15:15:28.794Z,80.50
2023-11-18T15:17:55.656Z,81.10
2023-11-18T15:20:22.761Z,81.50
2023-11-18T15:22:49.792Z,81.30
2023-11-18T15:25:17.021Z,81.20
2023-11-18T15:27:44.001Z,81.30
2023-11-18T15:30:11.305Z,81.20
2023-11-18T15:32:40.578Z,81.30
2023-11-18T15:35:08.405Z,81.40
2023-11-18T15:37:35.663Z,81.30
2023-11-18T15:40:02.561Z,81.30
2023-11-18T15:42:29.479Z,81.20
2023-11-18T15:44:57.284Z,81.20
2023-11-18T15:47:25.349Z,81.20
2023-11-18T15:49:53.625Z,81.10
2023-11-18T15:52:20.479Z,81.10
2023-11-18T15:54:47.439Z,81.10
2023-11-18T15:57:14.273Z,81.10
2023-11-18T15:59:41.116Z,81.10
2023-11-18T16:02:08.172Z,81.10
2023-11-18T16:04:35.105Z,81.10
2023-11-18T16:07:03.409Z,81.10
2023-11-18T16:09:30.273Z,81.20
2023-11-18T16:11:57.320Z,81.20
2023-11-18T16:14:24.104Z,81.10
2023-11-18T16:16:50.925Z,81.00
2023-11-18T16:19:17.686Z,81.10
2023-11-18T16:21:44.602Z,81.10
2023-11-18T16:24:12.753Z,81.10
2023-11-18T16:26:39.498Z,80.90
2023-11-18T16:29:06.278Z,80.90
2023-11-18T16:31:34.420Z,80.80
2023-11-18T16:34:02.622Z,80.90
2023-11-18T16:36:29.545Z,80.90
2023-11-18T16:38:56.732Z,80.80
2023-11-18T16:41:29.585Z,80.70
2023-11-18T16:43:59.078Z,80.70
2023-11-18T16:46:25.883Z,80.70
2023-11-18T16:48:55.258Z,80.70
2023-11-18T16:51:22.193Z,80.70
2023-11-18T16:53:49.019Z,80.70
2023-11-18T16:56:15.831Z,80.70
2023-11-18T16:58:43.968Z,80.70
2023-11-18T17:01:10.966Z,80.80
2023-11-18T17:03:37.956Z,80.60
2023-11-18T17:06:05.200Z,80.60
2023-11-18T17:08:31.976Z,80.70
2023-11-18T17:10:58.808Z,80.60
2023-11-18T17:13:25.570Z,80.70
2023-11-18T17:15:53.741Z,80.70
2023-11-18T17:18:20.532Z,80.80
2023-11-18T17:20:47.304Z,80.80
2023-11-18T17:23:14.310Z,80.70
2023-11-18T17:25:41.107Z,80.70
2023-11-18T17:28:07.879Z,80.70
2023-11-18T17:30:34.964Z,80.70
2023-11-18T17:33:03.707Z,80.50
2023-11-18T17:35:30.544Z,80.60
2023-11-18T17:37:57.352Z,80.50
2023-11-18T17:40:24.215Z,80.40
2023-11-18T17:42:54.166Z,80.40
2023-11-18T17:45:21.719Z,80.40
2023-11-18T17:47:48.546Z,80.30
2023-11-18T17:50:16.800Z,80.20
2023-11-18T17:52:43.984Z,80.20
2023-11-18T17:55:10.909Z,80.10
2023-11-18T17:57:37.801Z,80.10
2023-11-18T18:00:05.176Z,80.10
2023-11-18T18:02:31.991Z,80.20
2023-11-18T18:04:58.896Z,80.10
2023-11-18T18:07:27.036Z,80.00
2023-11-18T18:09:53.842Z,80.00
2023-11-18T18:12:20.574Z,79.90
2023-11-18T18:14:47.311Z,79.80
2023-11-18T18:17:14.124Z,79.70
2023-11-18T18:19:40.874Z,79.70
2023-11-18T18:22:07.608Z,79.70
2023-11-18T18:24:35.722Z,79.70
2023-11-18T18:27:02.471Z,79.40
2023-11-18T18:29:29.259Z,79.30
2023-11-18T18:31:56.008Z,79.20
2023-11-18T18:34:22.958Z,79.20
2023-11-18T18:36:49.695Z,79.10
2023-11-18T18:39:16.422Z,79.10
2023-11-18T18:41:44.528Z,79.10
2023-11-18T18:44:11.300Z,79.00
2023-11-18T18:46:38.161Z,78.90
2023-11-18T18:49:04.909Z,78.80
2023-11-18T18:51:31.656Z,78.70
2023-11-18T18:53:58.408Z,78.70
2023-11-18T18:56:25.238Z,78.80
2023-11-18T18:58:53.363Z,78.70
2023-11-18T19:01:22.052Z,78.60
2023-11-18T19:03:48.933Z,78.60
2023-11-18T19:06:15.803Z,78.70
2023-11-18T19:08:42.538Z,78.40
2023-11-18T19:11:09.310Z,78.40
2023-11-18T19:13:36.076Z,78.30
2023-11-18T19:16:06.214Z,78.30
2023-11-18T19:18:32.968Z,78.10
2023-11-18T19:20:59.715Z,77.90
2023-11-18T19:23:26.960Z,77.80
2023-11-18T19:25:53.716Z,77.60
2023-11-18T19:28:20.498Z,77.70
2023-11-18T19:30:47.278Z,77.70
2023-11-18T19:33:15.512Z,78.00
2023-11-18T19:35:42.336Z,77.50
2023-11-18T19:38:09.105Z,77.50
2023-11-18T19:40:35.858Z,77.50
2023-11-18T19:43:02.710Z,77.40
2023-11-18T19:45:29.468Z,77.50
2023-11-18T19:47:56.226Z,77.40
2023-11-18T19:50:27.704Z,77.30
2023-11-18T19:52:54.682Z,77.30
2023-11-18T19:55:21.448Z,77.10
2023-11-18T19:57:48.240Z,77.20
2023-11-18T20:00:15.379Z,77.10
2023-11-18T20:02:42.720Z,76.80
2023-11-18T20:05:09.798Z,76.70
2023-11-18T20:07:38.052Z,76.80
2023-11-18T20:10:05.054Z,76.90
2023-11-18T20:12:33.207Z,76.70
2023-11-18T20:15:00.212Z,76.80
2023-11-18T20:17:27.178Z,76.80
2023-11-18T20:19:54.104Z,76.70
2023-11-18T20:22:20.859Z,76.80
2023-11-18T20:24:48.967Z,76.80
2023-11-18T20:27:15.722Z,76.90
2023-11-18T20:29:42.487Z,77.00
2023-11-18T20:32:09.295Z,77.00
2023-11-18T20:34:36.094Z,77.00
2023-11-18T20:37:03.991Z,76.90
2023-11-18T20:39:30.747Z,76.90
2023-11-18T20:41:58.956Z,76.70
2023-11-18T20:44:25.751Z,76.70
2023-11-18T20:46:52.546Z,76.60
2023-11-18T20:49:19.290Z,76.50
2023-11-18T20:51:46.070Z,76.50
2023-11-18T20:54:12.828Z,76.50
2023-11-18T20:56:39.654Z,76.50
2023-11-18T20:59:07.925Z,76.50
2023-11-18T21:01:34.696Z,76.60
2023-11-18T21:04:01.772Z,76.80
2023-11-18T21:06:28.833Z,76.70
2023-11-18T21:08:55.636Z,76.70
2023-11-18T21:11:22.435Z,76.60
2023-11-18T21:13:49.217Z,76.60
2023-11-18T21:16:17.344Z,77.30
2023-11-18T21:18:44.108Z,76.50
2023-11-18T21:21:10.888Z,76.40
2023-11-18T21:23:37.628Z,76.50
2023-11-18T21:26:04.713Z,76.40
2023-11-18T21:28:31.491Z,76.30
2023-11-18T21:30:58.589Z,76.30
2023-11-18T21:33:26.736Z,76.30
2023-11-18T21:35:53.515Z,76.20
2023-11-18T21:38:20.263Z,76.20
2023-11-18T21:40:47.036Z,76.10
2023-11-18T21:43:13.801Z,76.20
2023-11-18T21:45:40.553Z,76.20
2023-11-18T21:48:07.337Z,76.10
2023-11-18T21:50:37.216Z,76.10
2023-11-18T21:53:04.157Z,76.10
2023-11-18T21:55:30.985Z,76.20
2023-11-18T21:57:57.715Z,76.30
2023-11-18T22:00:24.448Z,76.20
2023-11-18T22:02:51.399Z,76.20
2023-11-18T22:05:18.639Z,76.20
2023-11-18T22:07:46.817Z,76.20
2023-11-18T22:10:13.605Z,76.20
2023-11-18T22:12:40.334Z,76.20
2023-11-18T22:15:07.337Z,76.20
2023-11-18T22:17:34.133Z,76.10
2023-11-18T22:20:00.927Z,76.20
2023-11-18T22:22:34.056Z,76.30
2023-11-18T22:25:02.531Z,76.40
2023-11-18T22:27:29.268Z,76.80
2023-11-18T22:29:56.006Z,77.20
2023-11-18T22:32:22.740Z,76.40
2023-11-18T22:34:49.567Z,76.40
2023-11-18T22:37:16.306Z,76.40
2023-11-18T22:39:43.059Z,76.30
2023-11-18T22:42:11.157Z,76.30
2023-11-18T22:44:38.923Z,76.30
2023-11-18T22:47:05.884Z,76.30
2023-11-18T22:49:32.650Z,76.30
2023-11-18T22:51:59.714Z,77.10
2023-11-18T22:54:26.449Z,76.30
2023-11-18T22:56:53.190Z,76.30
2023-11-18T22:59:21.344Z,76.20
2023-11-18T23:01:48.098Z,76.20
2023-11-18T23:04:14.879Z,76.30
2023-11-18T23:06:41.661Z,76.40
2023-11-18T23:09:08.425Z,76.40
2023-11-18T23:11:35.205Z,76.40
2023-11-18T23:14:01.966Z,76.40
2023-11-18T23:16:30.070Z,76.50
2023-11-18T23:18:56.840Z,76.50
2023-11-18T23:21:23.614Z,76.60
2023-11-18T23:23:50.355Z,76.60
2023-11-18T23:26:17.095Z,76.60
2023-11-18T23:28:43.843Z,76.70
2023-11-18T23:31:11.537Z,76.60
2023-11-18T23:33:39.781Z,76.70
2023-11-18T23:36:07.147Z,76.60
2023-11-18T23:38:33.914Z,76.60
2023-11-18T23:41:00.642Z,76.50
2023-11-18T23:43:27.438Z,76.50
2023-11-18T23:45:54.253Z,76.50
2023-11-18T23:48:21.000Z,76.50
2023-11-18T23:50:49.104Z,76.50
2023-11-18T23:53:15.881Z,76.50
2023-11-18T23:55:42.643Z,76.60
2023-11-18T23:58:09.424Z,76.60
